createdAt,value
2022-12-08T05:29:19.135Z,99488.97
2022-12-08T05:35:11.579Z,99490.44
2022-12-08T05:41:05.807Z,99479.13
2022-12-08T05:46:58.329Z,99486.28
2022-12-08T05:52:50.614Z,99485.22
2022-12-08T05:58:43.763Z,99480.59
2022-12-08T06:04:36.946Z,99480.63
2022-12-08T06:10:29.444Z,99481.31
2022-12-08T06:16:21.938Z,99480.88
2022-12-08T06:22:14.764Z,99481.28
2022-12-08T06:28:07.605Z,99475.88
2022-12-08T06:34:00.765Z,99471.16
2022-12-08T06:39:53.845Z,99478.81
2022-12-08T06:45:47.618Z,99489.38
2022-12-08T06:51:40.734Z,99479.00
2022-12-08T06:57:35.165Z,99479.06
2022-12-08T07:03:28.965Z,99485.19
2022-12-08T07:09:21.870Z,99483.72
2022-12-08T07:15:15.395Z,99480.25
2022-12-08T07:21:10.928Z,99479.47
2022-12-08T07:27:03.553Z,99474.19
2022-12-08T07:32:55.734Z,99476.75
2022-12-08T07:38:48.647Z,99479.94
2022-12-08T07:44:40.649Z,99479.88
2022-12-08T07:50:33.325Z,99481.00
2022-12-08T07:56:26.045Z,99484.75
2022-12-08T08:02:25.266Z,99496.16
2022-12-08T08:08:19.048Z,99492.78
2022-12-08T08:14:12.015Z,99488.13
2022-12-08T08:20:08.857Z,99487.28
2022-12-08T08:26:05.114Z,99487.16
2022-12-08T08:31:57.446Z,99491.22
2022-12-08T08:37:51.058Z,99485.75
2022-12-08T08:43:44.905Z,99476.88
2022-12-08T08:49:37.117Z,99486.97
2022-12-08T08:55:29.677Z,99476.75
2022-12-08T09:01:28.334Z,99477.44
2022-12-08T09:07:22.126Z,99460.72
2022-12-08T09:13:15.065Z,99460.19
2022-12-08T09:19:08.226Z,99461.44
2022-12-08T09:25:01.214Z,99451.56
2022-12-08T09:30:54.703Z,99452.84
2022-12-08T09:36:47.055Z,99448.28
2022-12-08T09:43:12.396Z,99448.53
2022-12-08T09:49:05.896Z,99443.94
2022-12-08T09:55:03.427Z,99448.28
2022-12-08T10:00:56.428Z,99445.63
2022-12-08T10:06:49.404Z,99438.81
2022-12-08T10:13:05.265Z,99443.59
2022-12-08T10:19:11.575Z,99435.97
2022-12-08T10:25:10.477Z,99429.22
2022-12-08T10:31:03.114Z,99426.78
2022-12-08T10:36:58.119Z,99422.53
2022-12-08T10:42:53.995Z,99413.78
2022-12-08T10:48:53.693Z,99416.84
2022-12-08T10:54:46.204Z,99418.94
2022-12-08T11:00:40.433Z,99410.63
2022-12-08T11:06:36.768Z,99412.72
2022-12-08T11:12:30.772Z,99410.53
2022-12-08T11:18:39.466Z,99402.16
2022-12-08T11:24:37.659Z,99399.13
2022-12-08T11:30:37.096Z,99397.66
2022-12-08T11:36:33.359Z,99391.94
2022-12-08T11:42:35.875Z,99399.19
2022-12-08T11:49:06.300Z,99396.28
2022-12-08T11:55:18.389Z,99387.91
2022-12-08T12:01:28.735Z,99381.31
2022-12-08T12:07:41.396Z,99385.72
2022-12-08T12:13:56.573Z,99373.06
2022-12-08T12:19:50.418Z,99371.88
2022-12-08T12:25:57.063Z,99366.78
2022-12-08T12:31:53.882Z,99370.69
2022-12-08T12:37:46.331Z,99367.41
2022-12-08T12:43:39.494Z,99362.97
2022-12-08T12:49:40.726Z,99353.31
2022-12-08T12:55:56.728Z,99349.78
2022-12-08T13:01:54.824Z,99343.09
2022-12-08T13:07:56.863Z,99348.38
2022-12-08T13:14:04.267Z,99339.09
2022-12-08T13:20:00.114Z,99343.69
2022-12-08T13:26:17.206Z,99346.53
2022-12-08T13:32:12.602Z,99342.94
2022-12-08T13:38:06.114Z,99345.28
2022-12-08T13:57:14.274Z,99339.53
2022-12-08T14:03:13.488Z,99333.81
2022-12-08T14:09:13.561Z,99341.31
2022-12-08T14:15:08.368Z,99348.78
2022-12-08T14:21:22.830Z,99340.41
2022-12-08T14:27:18.642Z,99338.63
2022-12-08T14:33:17.136Z,99346.63
2022-12-08T14:39:10.007Z,99348.53
2022-12-08T14:45:11.202Z,99356.09
2022-12-08T14:51:04.640Z,99356.38
2022-12-08T14:56:58.374Z,99360.06
2022-12-08T15:02:51.125Z,99358.75
2022-12-08T15:08:54.655Z,99360.59
2022-12-08T15:15:00.260Z,99371.94
2022-12-08T15:21:01.275Z,99366.72
2022-12-08T15:26:55.584Z,99358.31
2022-12-08T15:32:54.392Z,99363.81
2022-12-08T15:38:52.296Z,99368.25
2022-12-08T15:44:46.094Z,99361.59
2022-12-08T15:50:39.103Z,99364.41
2022-12-08T15:56:34.266Z,99366.69
2022-12-08T16:02:34.288Z,99359.63
2022-12-08T16:08:51.800Z,99358.25
2022-12-08T16:21:31.601Z,99356.72
2022-12-08T16:33:38.467Z,99357.25
2022-12-08T16:39:38.783Z,99355.78
2022-12-08T16:45:44.457Z,99353.38
2022-12-08T16:51:38.658Z,99357.09
2022-12-08T16:57:32.136Z,99356.53
2022-12-08T17:03:25.525Z,99342.63
2022-12-08T17:09:18.956Z,99351.06
2022-12-08T17:15:17.118Z,99348.88
2022-12-08T17:21:17.375Z,99351.56
2022-12-08T17:27:12.135Z,99347.06
2022-12-08T17:33:05.168Z,99340.81
2022-12-08T17:39:00.902Z,99346.22
2022-12-08T17:44:57.864Z,99347.41
2022-12-08T17:50:56.364Z,99349.88
2022-12-08T17:56:49.054Z,99359.59
2022-12-08T18:02:41.338Z,99360.88
2022-12-08T18:08:37.103Z,99365.50
2022-12-08T18:14:30.524Z,99361.22
2022-12-08T18:20:23.564Z,99365.69
2022-12-08T18:26:17.272Z,99372.59
2022-12-08T18:32:09.827Z,99370.41
2022-12-08T18:38:03.115Z,99367.06
2022-12-08T18:43:57.335Z,99369.56
2022-12-08T18:49:50.974Z,99360.56
2022-12-08T18:55:43.455Z,99360.50
2022-12-08T19:01:38.178Z,99360.66
2022-12-08T19:07:32.114Z,99363.41
2022-12-08T19:13:24.714Z,99356.59
2022-12-08T19:19:18.057Z,99355.56
2022-12-08T19:25:10.426Z,99362.44
2022-12-08T19:31:07.206Z,99360.03
2022-12-08T19:36:59.738Z,99358.69
2022-12-08T19:43:11.325Z,99350.31
2022-12-08T19:49:03.528Z,99346.28
2022-12-08T19:54:57.891Z,99346.19
2022-12-08T20:00:50.586Z,99338.31
2022-12-08T20:06:43.224Z,99334.97
2022-12-08T20:12:35.842Z,99334.41
2022-12-08T20:18:29.916Z,99345.38
2022-12-08T20:24:22.754Z,99340.13
2022-12-08T20:30:18.073Z,99346.13
2022-12-08T20:36:19.414Z,99350.56
2022-12-08T20:42:14.063Z,99351.06
2022-12-08T20:48:07.065Z,99351.34
2022-12-08T20:54:00.931Z,99353.63
2022-12-08T20:59:53.938Z,99353.63
2022-12-08T21:05:53.013Z,99354.47
2022-12-08T21:11:46.033Z,99349.47
2022-12-08T21:17:39.136Z,99351.72
2022-12-08T21:23:32.332Z,99357.16
2022-12-08T21:29:25.934Z,99346.97
2022-12-08T21:35:18.668Z,99352.78
2022-12-08T21:41:38.027Z,99351.16
2022-12-08T21:47:30.930Z,99362.75
2022-12-08T21:53:26.614Z,99355.53
2022-12-08T21:59:21.255Z,99355.63
2022-12-08T22:05:14.707Z,99355.72
2022-12-08T22:11:08.413Z,99346.97
2022-12-08T22:17:00.639Z,99344.22
2022-12-08T22:22:53.170Z,99342.50
2022-12-08T22:28:46.088Z,99333.84
2022-12-08T22:34:39.154Z,99348.59
2022-12-08T22:40:32.235Z,99339.84
2022-12-08T22:46:27.594Z,99333.84
2022-12-08T22:52:20.274Z,99344.09
2022-12-08T22:58:14.494Z,99346.56
2022-12-08T23:04:09.189Z,99343.44
2022-12-08T23:10:07.447Z,99342.22
2022-12-08T23:16:00.235Z,99339.19
2022-12-08T23:21:53.135Z,99337.34
2022-12-08T23:27:46.231Z,99347.19
2022-12-08T23:33:39.546Z,99340.22
2022-12-08T23:39:32.492Z,99343.84
2022-12-08T23:45:25.174Z,99349.72
2022-12-08T23:51:18.043Z,99352.31
2022-12-08T23:57:10.260Z,99358.31
